Time,TemperatureF,DewpointF,PressureIn,WindDirection,WindDirectionDegrees,WindSpeedMPH,WindSpeedGustMPH,Humidity,HourlyPrecipIn,Conditions,Clouds,dailyrainin,SolarRadiationWatts/m^2,SoftwareType,DateUTC
2013-06-20 00:01:00,51.0,9.0,30.04,NW,317,5.0,8.0,18,-99.99,,,-99.99,0.000000,,2013-06-20 07:01:00,
2013-06-20 00:12:00,50.0,8.0,30.05,NW,317,5.0,8.0,18,-99.99,,,-99.99,0.000000,,2013-06-20 07:12:00,
2013-06-20 00:22:00,50.0,8.0,30.05,NW,317,5.0,8.0,18,-99.99,,,-99.99,0.000000,,2013-06-20 07:22:00,
2013-06-20 00:34:00,49.0,10.0,30.05,NW,304,7.0,10.0,20,-99.99,,,-99.99,0.000000,,2013-06-20 07:34:00,
2013-06-20 01:02:00,48.0,9.0,30.05,WNW,299,6.0,9.0,20,-99.99,,,-99.99,1.000000,,2013-06-20 08:02:00,
2013-06-20 01:11:00,48.0,9.0,30.05,WNW,299,6.0,9.0,20,-99.99,,,-99.99,1.000000,,2013-06-20 08:11:00,
2013-06-20 01:22:00,49.0,8.0,30.05,WNW,301,9.0,11.0,19,-99.99,,,-99.99,0.000000,,2013-06-20 08:22:00,
2013-06-20 01:34:00,50.0,9.0,30.05,NW,310,8.0,12.0,19,-99.99,,,-99.99,0.000000,,2013-06-20 08:34:00,
2013-06-20 01:43:00,49.0,9.0,30.05,NW,321,7.0,8.0,20,-99.99,,,-99.99,0.000000,,2013-06-20 08:43:00,
2013-06-20 01:52:00,47.0,8.0,30.05,NW,307,8.0,11.0,20,-99.99,,,-99.99,0.000000,,2013-06-20 08:52:00,
2013-06-20 02:00:00,43.0,9.0,30.06,West,280,7.0,9.0,24,-99.99,,,-99.99,0.000000,,2013-06-20 09:00:00,
2013-06-20 02:01:00,47.0,8.0,30.06,WNW,295,7.0,10.0,20,-99.99,,,-99.99,0.000000,,2013-06-20 09:01:00,
2013-06-20 02:11:00,46.0,9.0,30.06,North,4,5.0,7.0,22,-99.99,,,-99.99,0.000000,,2013-06-20 09:11:00,
2013-06-20 02:22:00,45.0,11.0,30.06,NNE,18,5.0,8.0,24,-99.99,,,-99.99,0.000000,,2013-06-20 09:22:00,
2013-06-20 02:33:00,45.0,10.0,30.05,NW,314,1.0,4.0,23,-99.99,,,-99.99,0.000000,,2013-06-20 09:33:00,
2013-06-20 02:42:00,46.0,10.0,30.06,NW,312,5.0,8.0,23,-99.99,,,-99.99,0.000000,,2013-06-20 09:42:00,
2013-06-20 02:52:00,43.0,9.0,30.06,West,280,7.0,9.0,24,-99.99,,,-99.99,0.000000,,2013-06-20 09:52:00,
2013-06-20 03:11:00,43.0,9.0,30.06,NW,313,3.0,6.0,24,-99.99,,,-99.99,0.000000,,2013-06-20 10:11:00,
2013-06-20 03:22:00,43.0,9.0,30.06,NNW,335,1.0,6.0,25,-99.99,,,-99.99,0.000000,,2013-06-20 10:22:00,
2013-06-20 03:33:00,45.0,13.0,30.06,NNW,344,10.0,15.0,27,-99.99,,,-99.99,0.000000,,2013-06-20 10:33:00,
2013-06-20 03:43:00,46.0,14.0,30.06,NNW,346,11.0,16.0,27,-99.99,,,-99.99,0.000000,,2013-06-20 10:43:00,
2013-06-20 03:53:00,46.0,15.0,30.06,NNW,345,11.0,15.0,28,-99.99,,,-99.99,0.000000,,2013-06-20 10:53:00,
2013-06-20 04:02:00,46.0,16.0,30.06,NNW,348,10.0,15.0,29,-99.99,,,-99.99,0.000000,,2013-06-20 11:02:00,
2013-06-20 04:11:00,45.0,14.0,30.05,North,354,9.0,13.0,29,-99.99,,,-99.99,0.000000,,2013-06-20 11:11:00,
2013-06-20 04:22:00,44.0,15.0,30.05,NNW,341,8.0,12.0,30,-99.99,,,-99.99,0.000000,,2013-06-20 11:22:00,
2013-06-20 04:34:00,44.0,14.0,30.05,NNE,24,6.0,11.0,30,-99.99,,,-99.99,1.000000,,2013-06-20 11:34:00,
2013-06-20 04:42:00,41.0,13.0,30.06,SSE,152,4.0,8.0,32,-99.99,,,-99.99,0.000000,,2013-06-20 11:42:00,
2013-06-20 04:53:00,42.0,14.0,30.06,NW,322,2.0,9.0,32,-99.99,,,-99.99,0.000000,,2013-06-20 11:53:00,
2013-06-20 05:00:00,34.0,8.0,30.06,SE,134,5.0,8.0,32,-99.99,,,-99.99,1.000000,,2013-06-20 12:00:00,
2013-06-20 05:02:00,40.0,13.0,30.06,SE,146,3.0,5.0,33,-99.99,,,-99.99,1.000000,,2013-06-20 12:02:00,
2013-06-20 05:11:00,39.0,13.0,30.06,SSE,152,3.0,5.0,34,-99.99,,,-99.99,0.000000,,2013-06-20 12:11:00,
2013-06-20 05:20:00,33.0,10.0,30.07,SE,144,5.0,8.0,37,-99.99,,,-99.99,7.000000,,2013-06-20 12:20:00,
2013-06-20 05:22:00,38.0,12.0,30.06,SE,137,3.0,7.0,34,-99.99,,,-99.99,0.000000,,2013-06-20 12:22:00,
2013-06-20 05:30:00,34.0,11.0,30.08,SE,142,5.0,8.0,38,-99.99,,,-99.99,8.000000,,2013-06-20 12:30:00,
2013-06-20 05:34:00,36.0,11.0,30.06,SE,137,4.0,8.0,35,-99.99,,,-99.99,0.000000,,2013-06-20 12:34:00,
2013-06-20 05:43:00,34.0,9.0,30.06,SE,131,4.0,7.0,34,-99.99,,,-99.99,0.000000,,2013-06-20 12:43:00,
2013-06-20 05:53:00,34.0,8.0,30.06,SE,134,5.0,8.0,32,-99.99,,,-99.99,1.000000,,2013-06-20 12:53:00,
2013-06-20 06:11:00,33.0,10.0,30.07,SE,144,5.0,8.0,37,-99.99,,,-99.99,7.000000,,2013-06-20 13:11:00,
2013-06-20 06:42:00,33.0,12.0,30.08,SSE,151,6.0,8.0,41,-99.99,,,-99.99,21.000000,,2013-06-20 13:42:00,
2013-06-20 06:53:00,33.0,12.0,30.09,SE,145,7.0,10.0,42,-99.99,,,-99.99,90.000000,,2013-06-20 13:53:00,
2013-06-20 07:00:00,46.0,18.0,30.10,North,7,3.0,6.0,32,-99.99,,,-99.99,312.000000,,2013-06-20 14:00:00,
2013-06-20 07:01:00,35.0,12.0,30.09,SE,138,5.0,8.0,39,-99.99,,,-99.99,134.000000,,2013-06-20 14:01:00,
2013-06-20 07:11:00,41.0,14.0,30.09,SE,144,2.0,4.0,33,-99.99,,,-99.99,200.000000,,2013-06-20 14:11:00,
2013-06-20 07:22:00,41.0,14.0,30.09,SE,144,2.0,4.0,33,-99.99,,,-99.99,200.000000,,2013-06-20 14:22:00,
2013-06-20 07:30:00,48.0,19.0,30.10,North,2,3.0,5.0,31,-99.99,,,-99.99,428.000000,,2013-06-20 14:30:00,
2013-06-20 07:32:00,43.0,15.0,30.09,SE,134,2.0,3.0,32,-99.99,,,-99.99,236.000000,,2013-06-20 14:32:00,
2013-06-20 07:42:00,45.0,16.0,30.10,NNE,20,2.0,5.0,31,-99.99,,,-99.99,273.000000,,2013-06-20 14:42:00,
2013-06-20 07:53:00,46.0,18.0,30.10,North,7,3.0,6.0,32,-99.99,,,-99.99,312.000000,,2013-06-20 14:53:00,
2013-06-20 08:11:00,47.0,18.0,30.10,North,357,2.0,5.0,31,-99.99,,,-99.99,389.000000,,2013-06-20 15:11:00,
2013-06-20 08:22:00,48.0,19.0,30.10,North,2,3.0,5.0,31,-99.99,,,-99.99,428.000000,,2013-06-20 15:22:00,
2013-06-20 08:43:00,49.0,20.0,30.10,North,356,7.0,10.0,32,-99.99,,,-99.99,505.000000,,2013-06-20 15:43:00,
2013-06-20 08:52:00,49.0,19.0,30.10,North,0,8.0,11.0,31,-99.99,,,-99.99,546.000000,,2013-06-20 15:52:00,
2013-06-20 09:01:00,50.0,20.0,30.09,North,354,7.0,12.0,30,-99.99,,,-99.99,584.000000,,2013-06-20 16:01:00,
2013-06-20 09:11:00,51.0,21.0,30.09,NNW,346,9.0,13.0,30,-99.99,,,-99.99,620.000000,,2013-06-20 16:11:00,
2013-06-20 09:22:00,52.0,21.0,30.09,North,5,7.0,12.0,30,-99.99,,,-99.99,656.000000,,2013-06-20 16:22:00,
2013-06-20 09:33:00,53.0,21.0,30.09,NNW,342,7.0,12.0,29,-99.99,,,-99.99,693.000000,,2013-06-20 16:33:00,
2013-06-20 09:42:00,53.0,21.0,30.09,North,350,7.0,12.0,28,-99.99,,,-99.99,728.000000,,2013-06-20 16:42:00,
2013-06-20 09:52:00,54.0,22.0,30.09,North,3,6.0,12.0,28,-99.99,,,-99.99,762.000000,,2013-06-20 16:52:00,
2013-06-20 10:01:00,55.0,21.0,30.09,NNW,329,7.0,13.0,27,-99.99,,,-99.99,794.000000,,2013-06-20 17:01:00,
2013-06-20 10:11:00,55.0,21.0,30.08,NNW,336,8.0,13.0,26,-99.99,,,-99.99,828.000000,,2013-06-20 17:11:00,
2013-06-20 10:22:00,56.0,21.0,30.08,NNW,338,8.0,14.0,25,-99.99,,,-99.99,860.000000,,2013-06-20 17:22:00,
2013-06-20 10:32:00,57.0,20.0,30.07,NW,324,4.0,9.0,23,-99.99,,,-99.99,919.000000,,2013-06-20 17:32:00,
2013-06-20 10:43:00,57.0,20.0,30.07,NW,324,4.0,9.0,23,-99.99,,,-99.99,919.000000,,2013-06-20 17:43:00,
2013-06-20 10:52:00,58.0,19.0,30.07,North,360,6.0,10.0,21,-99.99,,,-99.99,947.000000,,2013-06-20 17:52:00,
2013-06-20 11:01:00,59.0,17.0,30.07,NE,34,2.0,7.0,19,-99.99,,,-99.99,968.000000,,2013-06-20 18:01:00,
2013-06-20 11:11:00,60.0,19.0,30.06,North,2,4.0,8.0,20,-99.99,,,-99.99,989.000000,,2013-06-20 18:11:00,
2013-06-20 11:22:00,61.0,17.0,30.06,NNE,19,1.0,5.0,18,-99.99,,,-99.99,1006.000000,,2013-06-20 18:22:00,
2013-06-20 11:30:00,65.0,15.0,30.04,NE,35,2.0,8.0,14,-99.99,,,-99.99,1094.000000,,2013-06-20 18:30:00,
2013-06-20 11:33:00,61.0,17.0,30.06,SW,225,3.0,8.0,18,-99.99,,,-99.99,1027.000000,,2013-06-20 18:33:00,
2013-06-20 11:43:00,62.0,16.0,30.06,WSW,240,3.0,7.0,17,-99.99,,,-99.99,1047.000000,,2013-06-20 18:43:00,
2013-06-20 11:53:00,62.0,16.0,30.05,NE,43,2.0,9.0,16,-99.99,,,-99.99,1061.000000,,2013-06-20 18:53:00,
2013-06-20 12:01:00,64.0,15.0,30.05,ESE,110,2.0,6.0,15,-99.99,,,-99.99,1070.000000,,2013-06-20 19:01:00,
2013-06-20 12:11:00,65.0,15.0,30.04,NE,35,2.0,8.0,14,-99.99,,,-99.99,1094.000000,,2013-06-20 19:11:00,
2013-06-20 12:22:00,65.0,15.0,30.04,NE,35,2.0,8.0,14,-99.99,,,-99.99,1094.000000,,2013-06-20 19:22:00,
2013-06-20 13:02:00,67.0,14.0,30.02,West,260,4.0,11.0,13,-99.99,,,-99.99,1130.000000,,2013-06-20 20:02:00,
2013-06-20 13:10:00,70.0,15.0,30.00,SE,146,4.0,11.0,12,-99.99,,,-99.99,1128.000000,,2013-06-20 20:10:00,
2013-06-20 13:11:00,67.0,15.0,30.02,East,100,7.0,13.0,13,-99.99,,,-99.99,1133.000000,,2013-06-20 20:11:00,
2013-06-20 13:22:00,67.0,15.0,30.02,South,191,5.0,12.0,13,-99.99,,,-99.99,1142.000000,,2013-06-20 20:22:00,
2013-06-20 13:33:00,68.0,15.0,30.01,South,170,4.0,8.0,13,-99.99,,,-99.99,1141.000000,,2013-06-20 20:33:00,
2013-06-20 13:52:00,70.0,15.0,30.01,ESE,120,6.0,11.0,12,-99.99,,,-99.99,1136.000000,,2013-06-20 20:52:00,
2013-06-20 14:01:00,70.0,15.0,30.00,SE,146,4.0,11.0,12,-99.99,,,-99.99,1128.000000,,2013-06-20 21:01:00,
2013-06-20 17:11:00,75.0,10.0,29.96,SSE,147,5.0,10.0,8,-99.99,,,-99.99,768.000000,,2013-06-21 00:11:00,